sensor_id;sensor_type;location;lat;lon;timestamp;P1;durP1;ratioP1;P2;durP2;ratioP2
60344;SDS011;46188;52.324;8.032;2024-02-26T00:00:02;5.63;;;4.63;;
60344;SDS011;46188;52.324;8.032;2024-02-26T00:02:28;5.43;;;4.70;;
60344;SDS011;46188;52.324;8.032;2024-02-26T00:04:53;6.28;;;4.85;;
60344;SDS011;46188;52.324;8.032;2024-02-26T00:07:18;5.47;;;4.78;;
60344;SDS011;46188;52.324;8.032;2024-02-26T00:09:43;5.30;;;4.80;;
60344;SDS011;46188;52.324;8.032;2024-02-26T00:12:09;5.20;;;4.70;;
60344;SDS011;46188;52.324;8.032;2024-02-26T00:14:34;5.53;;;5.03;;
60344;SDS011;46188;52.324;8.032;2024-02-26T00:16:59;5.40;;;4.90;;
60344;SDS011;46188;52.324;8.032;2024-02-26T00:19:25;6.70;;;5.35;;
60344;SDS011;46188;52.324;8.032;2024-02-26T00:21:50;5.95;;;5.00;;
60344;SDS011;46188;52.324;8.032;2024-02-26T00:24:15;6.22;;;4.93;;
60344;SDS011;46188;52.324;8.032;2024-02-26T00:26:41;5.55;;;4.97;;
60344;SDS011;46188;52.324;8.032;2024-02-26T00:29:06;5.57;;;5.07;;
60344;SDS011;46188;52.324;8.032;2024-02-26T00:31:31;4.88;;;4.47;;
60344;SDS011;46188;52.324;8.032;2024-02-26T00:33:56;5.75;;;5.25;;
60344;SDS011;46188;52.324;8.032;2024-02-26T00:36:22;5.50;;;5.00;;
60344;SDS011;46188;52.324;8.032;2024-02-26T00:38:47;5.60;;;5.10;;
60344;SDS011;46188;52.324;8.032;2024-02-26T00:41:16;5.38;;;4.88;;
60344;SDS011;46188;52.324;8.032;2024-02-26T00:43:41;6.03;;;5.22;;
60344;SDS011;46188;52.324;8.032;2024-02-26T00:46:07;5.40;;;4.90;;
60344;SDS011;46188;52.324;8.032;2024-02-26T00:48:32;6.30;;;5.70;;
60344;SDS011;46188;52.324;8.032;2024-02-26T00:50:58;5.85;;;5.13;;
60344;SDS011;46188;52.324;8.032;2024-02-26T00:53:23;6.15;;;5.00;;
60344;SDS011;46188;52.324;8.032;2024-02-26T00:55:50;5.85;;;5.25;;
60344;SDS011;46188;52.324;8.032;2024-02-26T00:58:15;6.55;;;5.10;;
60344;SDS011;46188;52.324;8.032;2024-02-26T01:00:40;5.35;;;4.85;;
60344;SDS011;46188;52.324;8.032;2024-02-26T01:03:06;6.55;;;5.20;;
60344;SDS011;46188;52.324;8.032;2024-02-26T01:05:31;5.22;;;4.72;;
60344;SDS011;46188;52.324;8.032;2024-02-26T01:07:56;6.03;;;5.43;;
60344;SDS011;46188;52.324;8.032;2024-02-26T01:10:21;5.65;;;5.15;;
60344;SDS011;46188;52.324;8.032;2024-02-26T01:12:47;5.38;;;4.97;;
60344;SDS011;46188;52.324;8.032;2024-02-26T01:15:12;5.45;;;4.70;;
60344;SDS011;46188;52.324;8.032;2024-02-26T01:17:38;6.72;;;4.80;;
60344;SDS011;46188;52.324;8.032;2024-02-26T01:20:04;5.43;;;4.93;;
60344;SDS011;46188;52.324;8.032;2024-02-26T01:22:30;5.63;;;5.10;;
60344;SDS011;46188;52.324;8.032;2024-02-26T01:24:55;5.72;;;5.22;;
60344;SDS011;46188;52.324;8.032;2024-02-26T01:27:21;8.80;;;5.30;;
60344;SDS011;46188;52.324;8.032;2024-02-26T01:29:51;6.03;;;5.00;;
60344;SDS011;46188;52.324;8.032;2024-02-26T01:32:17;5.50;;;4.95;;
60344;SDS011;46188;52.324;8.032;2024-02-26T01:34:42;6.10;;;5.13;;
60344;SDS011;46188;52.324;8.032;2024-02-26T01:37:07;5.30;;;4.80;;
60344;SDS011;46188;52.324;8.032;2024-02-26T01:39:33;5.40;;;4.90;;
60344;SDS011;46188;52.324;8.032;2024-02-26T01:41:58;5.40;;;4.90;;
60344;SDS011;46188;52.324;8.032;2024-02-26T01:44:23;5.18;;;4.68;;
60344;SDS011;46188;52.324;8.032;2024-02-26T01:46:51;4.75;;;4.35;;
60344;SDS011;46188;52.324;8.032;2024-02-26T01:49:18;6.72;;;4.95;;
60344;SDS011;46188;52.324;8.032;2024-02-26T01:51:43;5.30;;;4.80;;
60344;SDS011;46188;52.324;8.032;2024-02-26T01:54:09;5.25;;;4.75;;
60344;SDS011;46188;52.324;8.032;2024-02-26T01:56:35;5.10;;;4.70;;
60344;SDS011;46188;52.324;8.032;2024-02-26T01:59:02;5.47;;;4.97;;
60344;SDS011;46188;52.324;8.032;2024-02-26T02:01:29;5.78;;;5.18;;
60344;SDS011;46188;52.324;8.032;2024-02-26T02:03:57;5.78;;;5.18;;
60344;SDS011;46188;52.324;8.032;2024-02-26T02:06:23;5.18;;;4.68;;
60344;SDS011;46188;52.324;8.032;2024-02-26T02:08:49;6.18;;;5.07;;
60344;SDS011;46188;52.324;8.032;2024-02-26T02:11:14;5.68;;;5.18;;
60344;SDS011;46188;52.324;8.032;2024-02-26T02:13:40;6.70;;;5.05;;
60344;SDS011;46188;52.324;8.032;2024-02-26T02:16:05;5.72;;;4.93;;
60344;SDS011;46188;52.324;8.032;2024-02-26T02:18:31;5.00;;;4.60;;
60344;SDS011;46188;52.324;8.032;2024-02-26T02:20:56;5.43;;;4.95;;
60344;SDS011;46188;52.324;8.032;2024-02-26T02:23:25;5.97;;;4.60;;
60344;SDS011;46188;52.324;8.032;2024-02-26T02:25:50;6.60;;;4.50;;
60344;SDS011;46188;52.324;8.032;2024-02-26T02:28:15;5.13;;;4.70;;
60344;SDS011;46188;52.324;8.032;2024-02-26T02:30:41;5.28;;;4.78;;
60344;SDS011;46188;52.324;8.032;2024-02-26T02:33:06;4.95;;;4.55;;
60344;SDS011;46188;52.324;8.032;2024-02-26T02:35:32;4.85;;;4.45;;
60344;SDS011;46188;52.324;8.032;2024-02-26T02:37:57;5.22;;;4.72;;
60344;SDS011;46188;52.324;8.032;2024-02-26T02:40:23;5.00;;;4.60;;
60344;SDS011;46188;52.324;8.032;2024-02-26T02:42:48;5.20;;;4.80;;
60344;SDS011;46188;52.324;8.032;2024-02-26T02:45:13;5.03;;;4.63;;
60344;SDS011;46188;52.324;8.032;2024-02-26T02:47:39;6.60;;;4.57;;
60344;SDS011;46188;52.324;8.032;2024-02-26T02:50:04;5.45;;;4.50;;
60344;SDS011;46188;52.324;8.032;2024-02-26T02:52:30;6.20;;;4.40;;
60344;SDS011;46188;52.324;8.032;2024-02-26T02:54:56;5.03;;;4.45;;
60344;SDS011;46188;52.324;8.032;2024-02-26T02:57:21;5.20;;;4.70;;
60344;SDS011;46188;52.324;8.032;2024-02-26T02:59:47;6.57;;;4.55;;
60344;SDS011;46188;52.324;8.032;2024-02-26T03:02:12;5.03;;;4.60;;
60344;SDS011;46188;52.324;8.032;2024-02-26T03:04:37;6.00;;;4.82;;
60344;SDS011;46188;52.324;8.032;2024-02-26T03:07:03;5.10;;;4.70;;
60344;SDS011;46188;52.324;8.032;2024-02-26T03:09:28;5.13;;;4.63;;
60344;SDS011;46188;52.324;8.032;2024-02-26T03:11:53;5.75;;;5.18;;
60344;SDS011;46188;52.324;8.032;2024-02-26T03:14:18;6.22;;;5.30;;
60344;SDS011;46188;52.324;8.032;2024-02-26T03:16:44;5.93;;;5.32;;
60344;SDS011;46188;52.324;8.032;2024-02-26T03:19:09;6.95;;;5.60;;
60344;SDS011;46188;52.324;8.032;2024-02-26T03:21:34;6.20;;;5.60;;
60344;SDS011;46188;52.324;8.032;2024-02-26T03:24:00;5.35;;;4.85;;
60344;SDS011;46188;52.324;8.032;2024-02-26T03:26:25;5.93;;;5.32;;
60344;SDS011;46188;52.324;8.032;2024-02-26T03:28:50;5.45;;;4.95;;
60344;SDS011;46188;52.324;8.032;2024-02-26T03:31:15;5.75;;;5.18;;
60344;SDS011;46188;52.324;8.032;2024-02-26T03:33:41;4.65;;;4.20;;
60344;SDS011;46188;52.324;8.032;2024-02-26T03:36:06;5.32;;;4.53;;
60344;SDS011;46188;52.324;8.032;2024-02-26T03:38:32;5.10;;;4.38;;
60344;SDS011;46188;52.324;8.032;2024-02-26T03:40:57;5.18;;;4.43;;
60344;SDS011;46188;52.324;8.032;2024-02-26T03:43:23;4.70;;;4.30;;
60344;SDS011;46188;52.324;8.032;2024-02-26T03:45:48;4.47;;;4.00;;
60344;SDS011;46188;52.324;8.032;2024-02-26T03:48:13;5.03;;;4.35;;
60344;SDS011;46188;52.324;8.032;2024-02-26T03:50:39;4.80;;;4.40;;
60344;SDS011;46188;52.324;8.032;2024-02-26T03:53:04;6.50;;;4.50;;
60344;SDS011;46188;52.324;8.032;2024-02-26T03:55:29;4.57;;;4.18;;
60344;SDS011;46188;52.324;8.032;2024-02-26T03:57:55;5.35;;;4.85;;
60344;SDS011;46188;52.324;8.032;2024-02-26T04:00:20;5.00;;;4.50;;
60344;SDS011;46188;52.324;8.032;2024-02-26T04:02:48;4.93;;;4.53;;
60344;SDS011;46188;52.324;8.032;2024-02-26T04:05:14;5.10;;;4.50;;
60344;SDS011;46188;52.324;8.032;2024-02-26T04:07:40;4.68;;;4.28;;
60344;SDS011;46188;52.324;8.032;2024-02-26T04:10:12;4.93;;;4.38;;
60344;SDS011;46188;52.324;8.032;2024-02-26T04:12:38;5.68;;;4.50;;
60344;SDS011;46188;52.324;8.032;2024-02-26T04:15:05;6.88;;;4.82;;
60344;SDS011;46188;52.324;8.032;2024-02-26T04:17:31;5.13;;;4.72;;
60344;SDS011;46188;52.324;8.032;2024-02-26T04:19:56;5.45;;;4.95;;
60344;SDS011;46188;52.324;8.032;2024-02-26T04:22:22;5.38;;;4.90;;
60344;SDS011;46188;52.324;8.032;2024-02-26T04:24:47;5.80;;;5.30;;
60344;SDS011;46188;52.324;8.032;2024-02-26T04:27:12;5.20;;;4.70;;
60344;SDS011;46188;52.324;8.032;2024-02-26T04:29:37;5.97;;;5.38;;
60344;SDS011;46188;52.324;8.032;2024-02-26T04:32:03;5.22;;;4.70;;
60344;SDS011;46188;52.324;8.032;2024-02-26T04:34:28;5.55;;;4.95;;
60344;SDS011;46188;52.324;8.032;2024-02-26T04:36:54;5.25;;;4.75;;
60344;SDS011;46188;52.324;8.032;2024-02-26T04:39:19;5.50;;;5.00;;
60344;SDS011;46188;52.324;8.032;2024-02-26T04:41:44;5.40;;;4.90;;
60344;SDS011;46188;52.324;8.032;2024-02-26T04:44:09;6.38;;;4.65;;
60344;SDS011;46188;52.324;8.032;2024-02-26T04:46:35;5.82;;;5.18;;
60344;SDS011;46188;52.324;8.032;2024-02-26T04:49:00;5.20;;;4.68;;
60344;SDS011;46188;52.324;8.032;2024-02-26T04:51:25;5.68;;;5.18;;
60344;SDS011;46188;52.324;8.032;2024-02-26T04:53:51;6.22;;;5.60;;
60344;SDS011;46188;52.324;8.032;2024-02-26T04:56:18;5.55;;;4.93;;
60344;SDS011;46188;52.324;8.032;2024-02-26T04:58:44;5.55;;;5.03;;
60344;SDS011;46188;52.324;8.032;2024-02-26T05:01:10;6.13;;;5.03;;
60344;SDS011;46188;52.324;8.032;2024-02-26T05:03:35;6.80;;;5.20;;
60344;SDS011;46188;52.324;8.032;2024-02-26T05:06:01;5.65;;;5.15;;
60344;SDS011;46188;52.324;8.032;2024-02-26T05:08:26;5.53;;;5.03;;
60344;SDS011;46188;52.324;8.032;2024-02-26T05:10:51;7.22;;;5.75;;
60344;SDS011;46188;52.324;8.032;2024-02-26T05:13:16;5.80;;;5.30;;
60344;SDS011;46188;52.324;8.032;2024-02-26T05:15:43;5.80;;;5.30;;
60344;SDS011;46188;52.324;8.032;2024-02-26T05:18:08;5.93;;;5.43;;
60344;SDS011;46188;52.324;8.032;2024-02-26T05:20:33;6.03;;;5.35;;
60344;SDS011;46188;52.324;8.032;2024-02-26T05:23:00;5.55;;;5.05;;
60344;SDS011;46188;52.324;8.032;2024-02-26T05:25:26;5.70;;;5.20;;
60344;SDS011;46188;52.324;8.032;2024-02-26T05:27:51;5.57;;;5.00;;
60344;SDS011;46188;52.324;8.032;2024-02-26T05:30:16;5.55;;;5.07;;
60344;SDS011;46188;52.324;8.032;2024-02-26T05:32:42;6.28;;;5.28;;
60344;SDS011;46188;52.324;8.032;2024-02-26T05:35:07;5.72;;;5.22;;
60344;SDS011;46188;52.324;8.032;2024-02-26T05:37:32;5.20;;;4.70;;
60344;SDS011;46188;52.324;8.032;2024-02-26T05:39:59;5.75;;;5.15;;
60344;SDS011;46188;52.324;8.032;2024-02-26T05:42:24;5.60;;;5.03;;
60344;SDS011;46188;52.324;8.032;2024-02-26T05:44:49;6.00;;;5.45;;
60344;SDS011;46188;52.324;8.032;2024-02-26T05:47:14;6.60;;;5.68;;
60344;SDS011;46188;52.324;8.032;2024-02-26T05:49:40;5.50;;;5.10;;
60344;SDS011;46188;52.324;8.032;2024-02-26T05:52:05;6.07;;;5.57;;
60344;SDS011;46188;52.324;8.032;2024-02-26T05:54:31;5.60;;;5.10;;
60344;SDS011;46188;52.324;8.032;2024-02-26T05:56:57;5.70;;;5.20;;
60344;SDS011;46188;52.324;8.032;2024-02-26T05:59:22;5.70;;;5.20;;
60344;SDS011;46188;52.324;8.032;2024-02-26T06:01:47;6.47;;;5.20;;
60344;SDS011;46188;52.324;8.032;2024-02-26T06:04:13;6.28;;;5.68;;
60344;SDS011;46188;52.324;8.032;2024-02-26T06:06:38;5.90;;;5.40;;
60344;SDS011;46188;52.324;8.032;2024-02-26T06:09:03;5.55;;;5.05;;
60344;SDS011;46188;52.324;8.032;2024-02-26T06:11:30;6.22;;;5.63;;
60344;SDS011;46188;52.324;8.032;2024-02-26T06:13:55;6.43;;;5.82;;
60344;SDS011;46188;52.324;8.032;2024-02-26T06:16:20;6.53;;;5.80;;
60344;SDS011;46188;52.324;8.032;2024-02-26T06:18:46;6.75;;;6.15;;
60344;SDS011;46188;52.324;8.032;2024-02-26T06:21:11;6.47;;;5.43;;
60344;SDS011;46188;52.324;8.032;2024-02-26T06:23:37;5.75;;;5.32;;
60344;SDS011;46188;52.324;8.032;2024-02-26T06:26:03;6.78;;;6.05;;
60344;SDS011;46188;52.324;8.032;2024-02-26T06:28:28;7.10;;;6.40;;
60344;SDS011;46188;52.324;8.032;2024-02-26T06:30:55;7.30;;;5.68;;
60344;SDS011;46188;52.324;8.032;2024-02-26T06:33:20;6.72;;;6.13;;
60344;SDS011;46188;52.324;8.032;2024-02-26T06:35:47;6.63;;;6.00;;
60344;SDS011;46188;52.324;8.032;2024-02-26T06:38:12;6.82;;;6.13;;
60344;SDS011;46188;52.324;8.032;2024-02-26T06:40:38;8.57;;;6.25;;
60344;SDS011;46188;52.324;8.032;2024-02-26T06:43:04;7.43;;;6.72;;
60344;SDS011;46188;52.324;8.032;2024-02-26T06:45:29;6.47;;;5.88;;
60344;SDS011;46188;52.324;8.032;2024-02-26T06:47:54;6.75;;;6.10;;
60344;SDS011;46188;52.324;8.032;2024-02-26T06:50:21;7.35;;;6.65;;
60344;SDS011;46188;52.324;8.032;2024-02-26T06:52:46;6.85;;;6.15;;
60344;SDS011;46188;52.324;8.032;2024-02-26T06:55:12;6.28;;;5.78;;
60344;SDS011;46188;52.324;8.032;2024-02-26T06:57:38;6.57;;;5.97;;
60344;SDS011;46188;52.324;8.032;2024-02-26T07:00:03;5.72;;;5.22;;
60344;SDS011;46188;52.324;8.032;2024-02-26T07:02:29;6.70;;;5.93;;
60344;SDS011;46188;52.324;8.032;2024-02-26T07:04:54;6.20;;;5.60;;
60344;SDS011;46188;52.324;8.032;2024-02-26T07:07:21;6.50;;;5.88;;
60344;SDS011;46188;52.324;8.032;2024-02-26T07:09:47;6.55;;;5.70;;
60344;SDS011;46188;52.324;8.032;2024-02-26T07:12:13;6.47;;;5.90;;
60344;SDS011;46188;52.324;8.032;2024-02-26T07:14:38;6.55;;;5.93;;
60344;SDS011;46188;52.324;8.032;2024-02-26T07:17:04;7.05;;;5.88;;
60344;SDS011;46188;52.324;8.032;2024-02-26T07:19:29;7.63;;;4.82;;
60344;SDS011;46188;52.324;8.032;2024-02-26T07:21:54;5.40;;;4.90;;
60344;SDS011;46188;52.324;8.032;2024-02-26T07:24:20;5.80;;;5.30;;
60344;SDS011;46188;52.324;8.032;2024-02-26T07:26:46;5.75;;;5.20;;
60344;SDS011;46188;52.324;8.032;2024-02-26T07:29:11;6.03;;;5.43;;
60344;SDS011;46188;52.324;8.032;2024-02-26T07:31:36;5.95;;;5.45;;
60344;SDS011;46188;52.324;8.032;2024-02-26T07:34:01;5.68;;;5.13;;
60344;SDS011;46188;52.324;8.032;2024-02-26T07:36:27;6.25;;;5.60;;
60344;SDS011;46188;52.324;8.032;2024-02-26T07:38:52;5.85;;;5.30;;
60344;SDS011;46188;52.324;8.032;2024-02-26T07:41:19;5.57;;;5.07;;
60344;SDS011;46188;52.324;8.032;2024-02-26T07:43:44;6.10;;;5.30;;
60344;SDS011;46188;52.324;8.032;2024-02-26T07:46:13;5.50;;;5.00;;
60344;SDS011;46188;52.324;8.032;2024-02-26T07:48:38;6.20;;;5.63;;
60344;SDS011;46188;52.324;8.032;2024-02-26T07:51:03;5.90;;;5.13;;
60344;SDS011;46188;52.324;8.032;2024-02-26T07:53:29;6.15;;;5.60;;
60344;SDS011;46188;52.324;8.032;2024-02-26T07:55:55;6.40;;;5.43;;
60344;SDS011;46188;52.324;8.032;2024-02-26T07:58:21;5.50;;;4.97;;
60344;SDS011;46188;52.324;8.032;2024-02-26T08:00:48;6.28;;;5.38;;
60344;SDS011;46188;52.324;8.032;2024-02-26T08:03:13;5.78;;;5.28;;
60344;SDS011;46188;52.324;8.032;2024-02-26T08:05:40;5.25;;;4.75;;
60344;SDS011;46188;52.324;8.032;2024-02-26T08:08:07;5.78;;;5.28;;
60344;SDS011;46188;52.324;8.032;2024-02-26T08:10:33;8.52;;;6.03;;
60344;SDS011;46188;52.324;8.032;2024-02-26T08:12:58;5.78;;;5.28;;
60344;SDS011;46188;52.324;8.032;2024-02-26T08:15:30;5.95;;;5.35;;
60344;SDS011;46188;52.324;8.032;2024-02-26T08:17:55;5.75;;;5.25;;
60344;SDS011;46188;52.324;8.032;2024-02-26T08:20:21;6.00;;;5.50;;
60344;SDS011;46188;52.324;8.032;2024-02-26T08:22:46;6.00;;;5.40;;
60344;SDS011;46188;52.324;8.032;2024-02-26T08:25:11;7.70;;;5.45;;
60344;SDS011;46188;52.324;8.032;2024-02-26T08:27:36;5.93;;;5.30;;
60344;SDS011;46188;52.324;8.032;2024-02-26T08:30:02;6.00;;;5.40;;
60344;SDS011;46188;52.324;8.032;2024-02-26T08:32:27;5.35;;;4.95;;
60344;SDS011;46188;52.324;8.032;2024-02-26T08:34:52;5.68;;;5.18;;
60344;SDS011;46188;52.324;8.032;2024-02-26T08:37:17;6.43;;;5.32;;
60344;SDS011;46188;52.324;8.032;2024-02-26T08:39:43;6.22;;;5.40;;
60344;SDS011;46188;52.324;8.032;2024-02-26T08:42:08;5.78;;;5.28;;
60344;SDS011;46188;52.324;8.032;2024-02-26T08:44:33;5.72;;;5.22;;
60344;SDS011;46188;52.324;8.032;2024-02-26T08:46:59;6.68;;;5.60;;
60344;SDS011;46188;52.324;8.032;2024-02-26T08:49:24;5.55;;;5.05;;
60344;SDS011;46188;52.324;8.032;2024-02-26T08:51:49;6.40;;;5.80;;
60344;SDS011;46188;52.324;8.032;2024-02-26T08:54:14;6.35;;;5.20;;
60344;SDS011;46188;52.324;8.032;2024-02-26T08:56:40;5.75;;;5.25;;
60344;SDS011;46188;52.324;8.032;2024-02-26T08:59:05;8.55;;;5.35;;
60344;SDS011;46188;52.324;8.032;2024-02-26T09:01:33;6.10;;;5.50;;
60344;SDS011;46188;52.324;8.032;2024-02-26T09:03:59;7.07;;;5.40;;
60344;SDS011;46188;52.324;8.032;2024-02-26T09:06:24;6.88;;;5.80;;
60344;SDS011;46188;52.324;8.032;2024-02-26T09:08:49;5.78;;;5.28;;
60344;SDS011;46188;52.324;8.032;2024-02-26T09:11:14;6.30;;;5.70;;
60344;SDS011;46188;52.324;8.032;2024-02-26T09:13:40;6.30;;;5.70;;
60344;SDS011;46188;52.324;8.032;2024-02-26T09:16:05;6.28;;;5.68;;
60344;SDS011;46188;52.324;8.032;2024-02-26T09:18:31;9.63;;;5.60;;
60344;SDS011;46188;52.324;8.032;2024-02-26T09:20:56;6.75;;;5.82;;
60344;SDS011;46188;52.324;8.032;2024-02-26T09:23:24;5.50;;;4.72;;
60344;SDS011;46188;52.324;8.032;2024-02-26T09:25:49;7.10;;;5.50;;
60344;SDS011;46188;52.324;8.032;2024-02-26T09:28:15;6.15;;;5.43;;
60344;SDS011;46188;52.324;8.032;2024-02-26T09:30:42;7.50;;;5.15;;
60344;SDS011;46188;52.324;8.032;2024-02-26T09:33:08;6.38;;;5.38;;
60344;SDS011;46188;52.324;8.032;2024-02-26T09:35:33;6.30;;;5.43;;
60344;SDS011;46188;52.324;8.032;2024-02-26T09:37:59;5.65;;;5.05;;
60344;SDS011;46188;52.324;8.032;2024-02-26T09:40:24;6.75;;;5.30;;
60344;SDS011;46188;52.324;8.032;2024-02-26T09:42:49;6.47;;;5.60;;
60344;SDS011;46188;52.324;8.032;2024-02-26T09:45:19;6.05;;;5.47;;
60344;SDS011;46188;52.324;8.032;2024-02-26T09:47:47;5.57;;;5.10;;
60344;SDS011;46188;52.324;8.032;2024-02-26T09:50:13;5.93;;;5.32;;
60344;SDS011;46188;52.324;8.032;2024-02-26T09:52:42;5.53;;;5.03;;
60344;SDS011;46188;52.324;8.032;2024-02-26T09:55:08;5.80;;;5.00;;
60344;SDS011;46188;52.324;8.032;2024-02-26T09:57:37;8.38;;;5.15;;
60344;SDS011;46188;52.324;8.032;2024-02-26T10:00:03;7.00;;;5.15;;
60344;SDS011;46188;52.324;8.032;2024-02-26T10:02:32;4.80;;;4.30;;
60344;SDS011;46188;52.324;8.032;2024-02-26T10:04:59;5.57;;;5.03;;
60344;SDS011;46188;52.324;8.032;2024-02-26T10:07:30;5.93;;;5.43;;
60344;SDS011;46188;52.324;8.032;2024-02-26T10:09:55;5.47;;;4.97;;
60344;SDS011;46188;52.324;8.032;2024-02-26T10:12:21;5.22;;;4.72;;
60344;SDS011;46188;52.324;8.032;2024-02-26T10:14:46;6.53;;;5.10;;
60344;SDS011;46188;52.324;8.032;2024-02-26T10:17:12;6.43;;;4.75;;
60344;SDS011;46188;52.324;8.032;2024-02-26T10:19:37;5.50;;;4.78;;
60344;SDS011;46188;52.324;8.032;2024-02-26T10:22:03;4.60;;;4.20;;
60344;SDS011;46188;52.324;8.032;2024-02-26T10:24:29;5.43;;;4.93;;
60344;SDS011;46188;52.324;8.032;2024-02-26T10:26:55;4.95;;;4.47;;
60344;SDS011;46188;52.324;8.032;2024-02-26T10:29:22;7.38;;;4.65;;
60344;SDS011;46188;52.324;8.032;2024-02-26T10:31:48;5.10;;;4.60;;
60344;SDS011;46188;52.324;8.032;2024-02-26T10:34:17;5.30;;;4.80;;
60344;SDS011;46188;52.324;8.032;2024-02-26T10:36:43;7.88;;;5.30;;
60344;SDS011;46188;52.324;8.032;2024-02-26T10:39:09;6.80;;;4.80;;
60344;SDS011;46188;52.324;8.032;2024-02-26T10:41:36;5.55;;;4.97;;
60344;SDS011;46188;52.324;8.032;2024-02-26T10:44:02;5.03;;;4.63;;
60344;SDS011;46188;52.324;8.032;2024-02-26T10:46:27;7.00;;;4.85;;
60344;SDS011;46188;52.324;8.032;2024-02-26T10:48:53;5.13;;;4.65;;
60344;SDS011;46188;52.324;8.032;2024-02-26T10:51:20;5.55;;;5.05;;
60344;SDS011;46188;52.324;8.032;2024-02-26T10:53:59;5.00;;;4.60;;
60344;SDS011;46188;52.324;8.032;2024-02-26T10:56:27;5.07;;;4.68;;
60344;SDS011;46188;52.324;8.032;2024-02-26T10:58:54;5.45;;;4.95;;
60344;SDS011;46188;52.324;8.032;2024-02-26T11:01:20;5.40;;;4.90;;
60344;SDS011;46188;52.324;8.032;2024-02-26T11:03:50;6.07;;;5.05;;
60344;SDS011;46188;52.324;8.032;2024-02-26T11:06:17;6.28;;;5.65;;
60344;SDS011;46188;52.324;8.032;2024-02-26T11:08:44;8.40;;;6.03;;
60344;SDS011;46188;52.324;8.032;2024-02-26T11:11:12;5.80;;;5.20;;
60344;SDS011;46188;52.324;8.032;2024-02-26T11:13:40;5.55;;;4.97;;
60344;SDS011;46188;52.324;8.032;2024-02-26T11:16:09;5.55;;;4.97;;
60344;SDS011;46188;52.324;8.032;2024-02-26T11:18:36;5.93;;;5.32;;
60344;SDS011;46188;52.324;8.032;2024-02-26T11:21:04;5.30;;;4.90;;
60344;SDS011;46188;52.324;8.032;2024-02-26T11:23:33;5.30;;;4.80;;
60344;SDS011;46188;52.324;8.032;2024-02-26T11:26:01;4.93;;;4.53;;
60344;SDS011;46188;52.324;8.032;2024-02-26T11:28:29;5.40;;;4.90;;
60344;SDS011;46188;52.324;8.032;2024-02-26T11:30:56;4.95;;;4.55;;
60344;SDS011;46188;52.324;8.032;2024-02-26T11:33:24;5.35;;;4.85;;
60344;SDS011;46188;52.324;8.032;2024-02-26T11:35:50;5.22;;;4.82;;
60344;SDS011;46188;52.324;8.032;2024-02-26T11:38:22;6.03;;;5.00;;
60344;SDS011;46188;52.324;8.032;2024-02-26T11:40:50;6.30;;;5.05;;
60344;SDS011;46188;52.324;8.032;2024-02-26T11:43:16;5.57;;;4.90;;
60344;SDS011;46188;52.324;8.032;2024-02-26T11:48:11;4.80;;;4.40;;
60344;SDS011;46188;52.324;8.032;2024-02-26T11:50:38;5.32;;;4.80;;
60344;SDS011;46188;52.324;8.032;2024-02-26T11:58:39;4.80;;;4.40;;
60344;SDS011;46188;52.324;8.032;2024-02-26T12:01:05;5.60;;;5.10;;
60344;SDS011;46188;52.324;8.032;2024-02-26T12:03:30;5.35;;;4.85;;
60344;SDS011;46188;52.324;8.032;2024-02-26T12:05:56;5.40;;;4.90;;
60344;SDS011;46188;52.324;8.032;2024-02-26T12:08:21;8.13;;;6.20;;
60344;SDS011;46188;52.324;8.032;2024-02-26T12:10:48;5.10;;;4.70;;
60344;SDS011;46188;52.324;8.032;2024-02-26T12:13:14;6.05;;;4.90;;
60344;SDS011;46188;52.324;8.032;2024-02-26T12:15:45;5.53;;;5.05;;
60344;SDS011;46188;52.324;8.032;2024-02-26T12:18:22;6.35;;;5.75;;
60344;SDS011;46188;52.324;8.032;2024-02-26T12:21:01;7.13;;;5.47;;
60344;SDS011;46188;52.324;8.032;2024-02-26T12:23:28;7.45;;;5.45;;
60344;SDS011;46188;52.324;8.032;2024-02-26T12:25:53;7.32;;;5.72;;
60344;SDS011;46188;52.324;8.032;2024-02-26T12:28:23;5.70;;;5.20;;
60344;SDS011;46188;52.324;8.032;2024-02-26T12:30:48;5.40;;;5.00;;
60344;SDS011;46188;52.324;8.032;2024-02-26T12:33:13;6.43;;;5.43;;
60344;SDS011;46188;52.324;8.032;2024-02-26T12:35:39;5.35;;;4.85;;
60344;SDS011;46188;52.324;8.032;2024-02-26T12:38:04;4.80;;;4.40;;
60344;SDS011;46188;52.324;8.032;2024-02-26T12:40:30;5.50;;;5.05;;
60344;SDS011;46188;52.324;8.032;2024-02-26T12:42:56;5.22;;;4.78;;
60344;SDS011;46188;52.324;8.032;2024-02-26T12:45:21;5.47;;;4.97;;
60344;SDS011;46188;52.324;8.032;2024-02-26T12:47:47;5.20;;;4.75;;
60344;SDS011;46188;52.324;8.032;2024-02-26T12:50:12;5.60;;;5.10;;
60344;SDS011;46188;52.324;8.032;2024-02-26T12:52:46;4.97;;;4.50;;
60344;SDS011;46188;52.324;8.032;2024-02-26T12:55:15;5.72;;;5.15;;
60344;SDS011;46188;52.324;8.032;2024-02-26T12:57:43;6.28;;;5.05;;
60344;SDS011;46188;52.324;8.032;2024-02-26T13:00:11;5.78;;;5.30;;
60344;SDS011;46188;52.324;8.032;2024-02-26T13:02:39;5.15;;;4.75;;
60344;SDS011;46188;52.324;8.032;2024-02-26T13:05:07;5.22;;;4.82;;
60344;SDS011;46188;52.324;8.032;2024-02-26T13:07:34;5.70;;;5.20;;
60344;SDS011;46188;52.324;8.032;2024-02-26T13:10:05;5.78;;;5.28;;
60344;SDS011;46188;52.324;8.032;2024-02-26T13:12:30;5.63;;;5.13;;
60344;SDS011;46188;52.324;8.032;2024-02-26T13:15:00;5.50;;;5.10;;
60344;SDS011;46188;52.324;8.032;2024-02-26T13:17:26;5.60;;;5.10;;
60344;SDS011;46188;52.324;8.032;2024-02-26T13:19:53;5.18;;;4.75;;
60344;SDS011;46188;52.324;8.032;2024-02-26T13:22:20;5.25;;;4.80;;
60344;SDS011;46188;52.324;8.032;2024-02-26T13:24:52;5.70;;;5.18;;
60344;SDS011;46188;52.324;8.032;2024-02-26T13:27:22;5.90;;;5.40;;
60344;SDS011;46188;52.324;8.032;2024-02-26T13:29:48;5.40;;;5.00;;
60344;SDS011;46188;52.324;8.032;2024-02-26T13:32:13;6.07;;;5.53;;
60344;SDS011;46188;52.324;8.032;2024-02-26T13:34:38;5.78;;;5.20;;
60344;SDS011;46188;52.324;8.032;2024-02-26T13:37:04;5.40;;;4.90;;
60344;SDS011;46188;52.324;8.032;2024-02-26T13:39:30;5.18;;;4.75;;
60344;SDS011;46188;52.324;8.032;2024-02-26T13:41:55;5.45;;;4.95;;
60344;SDS011;46188;52.324;8.032;2024-02-26T13:44:22;5.82;;;4.93;;
60344;SDS011;46188;52.324;8.032;2024-02-26T13:46:48;5.45;;;5.00;;
60344;SDS011;46188;52.324;8.032;2024-02-26T13:49:14;5.70;;;5.20;;
60344;SDS011;46188;52.324;8.032;2024-02-26T13:51:39;6.18;;;5.57;;
60344;SDS011;46188;52.324;8.032;2024-02-26T13:54:05;6.78;;;5.28;;
60344;SDS011;46188;52.324;8.032;2024-02-26T13:56:31;5.50;;;4.88;;
60344;SDS011;46188;52.324;8.032;2024-02-26T13:58:57;5.70;;;5.05;;
60344;SDS011;46188;52.324;8.032;2024-02-26T14:01:23;6.25;;;5.65;;
60344;SDS011;46188;52.324;8.032;2024-02-26T14:03:49;6.88;;;5.50;;
60344;SDS011;46188;52.324;8.032;2024-02-26T14:06:14;5.63;;;4.80;;
60344;SDS011;46188;52.324;8.032;2024-02-26T14:08:39;5.85;;;5.35;;
60344;SDS011;46188;52.324;8.032;2024-02-26T14:11:05;5.60;;;5.10;;
60344;SDS011;46188;52.324;8.032;2024-02-26T14:13:31;6.57;;;5.18;;
60344;SDS011;46188;52.324;8.032;2024-02-26T14:15:56;6.82;;;4.82;;
60344;SDS011;46188;52.324;8.032;2024-02-26T14:18:21;6.10;;;5.50;;
60344;SDS011;46188;52.324;8.032;2024-02-26T14:20:47;6.15;;;5.22;;
60344;SDS011;46188;52.324;8.032;2024-02-26T14:23:12;5.43;;;4.93;;
60344;SDS011;46188;52.324;8.032;2024-02-26T14:25:37;5.85;;;4.93;;
60344;SDS011;46188;52.324;8.032;2024-02-26T14:28:03;5.10;;;4.63;;
60344;SDS011;46188;52.324;8.032;2024-02-26T14:30:28;4.65;;;4.25;;
60344;SDS011;46188;52.324;8.032;2024-02-26T14:32:53;6.18;;;5.57;;
60344;SDS011;46188;52.324;8.032;2024-02-26T14:35:19;6.03;;;5.53;;
60344;SDS011;46188;52.324;8.032;2024-02-26T14:37:44;5.28;;;4.78;;
60344;SDS011;46188;52.324;8.032;2024-02-26T14:40:14;5.15;;;4.65;;
60344;SDS011;46188;52.324;8.032;2024-02-26T14:42:40;7.18;;;5.32;;
60344;SDS011;46188;52.324;8.032;2024-02-26T14:45:06;5.78;;;5.20;;
60344;SDS011;46188;52.324;8.032;2024-02-26T14:47:34;5.60;;;5.10;;